sensor_id;sensor_type;location;lat;lon;timestamp;P1;durP1;ratioP1;P2;durP2;ratioP2
23549;SDS011;11953;49.010;8.608;2022-07-23T00:02:29;7.10;;;5.93;;
23549;SDS011;11953;49.010;8.608;2022-07-23T00:05:16;7.38;;;6.30;;
23549;SDS011;11953;49.010;8.608;2022-07-23T00:08:03;11.77;;;6.15;;
23549;SDS011;11953;49.010;8.608;2022-07-23T00:13:45;7.82;;;5.82;;
23549;SDS011;11953;49.010;8.608;2022-07-23T00:16:32;6.57;;;5.82;;
23549;SDS011;11953;49.010;8.608;2022-07-23T00:19:19;7.95;;;6.18;;
23549;SDS011;11953;49.010;8.608;2022-07-23T00:22:06;6.82;;;5.97;;
23549;SDS011;11953;49.010;8.608;2022-07-23T00:24:53;6.60;;;5.47;;
23549;SDS011;11953;49.010;8.608;2022-07-23T00:28:01;6.70;;;4.95;;
23549;SDS011;11953;49.010;8.608;2022-07-23T00:30:49;6.78;;;5.32;;
23549;SDS011;11953;49.010;8.608;2022-07-23T00:33:36;9.60;;;5.70;;
23549;SDS011;11953;49.010;8.608;2022-07-23T00:36:22;8.90;;;5.00;;
23549;SDS011;11953;49.010;8.608;2022-07-23T00:39:09;7.15;;;5.22;;
23549;SDS011;11953;49.010;8.608;2022-07-23T00:41:56;5.80;;;4.93;;
23549;SDS011;11953;49.010;8.608;2022-07-23T00:44:44;8.82;;;5.32;;
23549;SDS011;11953;49.010;8.608;2022-07-23T00:47:32;7.10;;;5.55;;
23549;SDS011;11953;49.010;8.608;2022-07-23T00:50:19;7.70;;;5.38;;
23549;SDS011;11953;49.010;8.608;2022-07-23T00:53:06;6.30;;;4.78;;
23549;SDS011;11953;49.010;8.608;2022-07-23T00:55:53;7.88;;;5.03;;
23549;SDS011;11953;49.010;8.608;2022-07-23T00:58:40;12.73;;;5.45;;
23549;SDS011;11953;49.010;8.608;2022-07-23T01:01:30;7.07;;;5.13;;
23549;SDS011;11953;49.010;8.608;2022-07-23T01:04:16;7.03;;;4.82;;
23549;SDS011;11953;49.010;8.608;2022-07-23T01:07:03;7.68;;;4.80;;
23549;SDS011;11953;49.010;8.608;2022-07-23T01:09:51;6.85;;;5.13;;
23549;SDS011;11953;49.010;8.608;2022-07-23T01:12:38;6.07;;;4.65;;
23549;SDS011;11953;49.010;8.608;2022-07-23T01:15:25;8.27;;;4.82;;
23549;SDS011;11953;49.010;8.608;2022-07-23T01:18:13;6.75;;;4.30;;
23549;SDS011;11953;49.010;8.608;2022-07-23T01:21:01;6.22;;;4.68;;
23549;SDS011;11953;49.010;8.608;2022-07-23T01:23:49;6.70;;;4.35;;
23549;SDS011;11953;49.010;8.608;2022-07-23T01:26:37;5.68;;;4.10;;
23549;SDS011;11953;49.010;8.608;2022-07-23T01:29:25;6.07;;;4.28;;
23549;SDS011;11953;49.010;8.608;2022-07-23T01:32:14;5.30;;;4.18;;
23549;SDS011;11953;49.010;8.608;2022-07-23T01:35:01;6.85;;;4.25;;
23549;SDS011;11953;49.010;8.608;2022-07-23T01:37:48;5.70;;;4.00;;
23549;SDS011;11953;49.010;8.608;2022-07-23T01:40:37;6.93;;;4.75;;
23549;SDS011;11953;49.010;8.608;2022-07-23T01:43:25;6.38;;;4.47;;
23549;SDS011;11953;49.010;8.608;2022-07-23T01:46:12;6.93;;;3.95;;
23549;SDS011;11953;49.010;8.608;2022-07-23T01:49:05;6.47;;;3.80;;
23549;SDS011;11953;49.010;8.608;2022-07-23T01:52:18;5.22;;;4.07;;
23549;SDS011;11953;49.010;8.608;2022-07-23T01:55:08;5.75;;;3.97;;
23549;SDS011;11953;49.010;8.608;2022-07-23T01:58:05;6.25;;;3.75;;
23549;SDS011;11953;49.010;8.608;2022-07-23T02:00:52;4.55;;;4.15;;
23549;SDS011;11953;49.010;8.608;2022-07-23T02:03:39;6.70;;;4.55;;
23549;SDS011;11953;49.010;8.608;2022-07-23T02:06:27;6.50;;;4.40;;
23549;SDS011;11953;49.010;8.608;2022-07-23T02:09:14;6.30;;;4.03;;
23549;SDS011;11953;49.010;8.608;2022-07-23T02:12:00;5.95;;;4.90;;
23549;SDS011;11953;49.010;8.608;2022-07-23T02:14:49;5.82;;;3.78;;
23549;SDS011;11953;49.010;8.608;2022-07-23T02:17:36;6.47;;;4.40;;
23549;SDS011;11953;49.010;8.608;2022-07-23T02:20:25;6.72;;;4.85;;
23549;SDS011;11953;49.010;8.608;2022-07-23T02:23:12;7.90;;;4.72;;
23549;SDS011;11953;49.010;8.608;2022-07-23T02:25:59;5.30;;;4.30;;
23549;SDS011;11953;49.010;8.608;2022-07-23T02:28:48;5.75;;;4.65;;
23549;SDS011;11953;49.010;8.608;2022-07-23T02:31:36;5.32;;;4.18;;
23549;SDS011;11953;49.010;8.608;2022-07-23T02:34:24;4.93;;;4.18;;
23549;SDS011;11953;49.010;8.608;2022-07-23T02:37:11;7.05;;;4.13;;
23549;SDS011;11953;49.010;8.608;2022-07-23T02:39:58;6.43;;;4.30;;
23549;SDS011;11953;49.010;8.608;2022-07-23T02:42:48;5.20;;;3.92;;
23549;SDS011;11953;49.010;8.608;2022-07-23T02:45:35;7.97;;;4.70;;
23549;SDS011;11953;49.010;8.608;2022-07-23T02:48:23;7.38;;;4.30;;
23549;SDS011;11953;49.010;8.608;2022-07-23T02:51:10;6.93;;;3.75;;
23549;SDS011;11953;49.010;8.608;2022-07-23T02:54:05;5.60;;;4.57;;
23549;SDS011;11953;49.010;8.608;2022-07-23T02:56:53;6.22;;;4.20;;
23549;SDS011;11953;49.010;8.608;2022-07-23T02:59:40;6.95;;;4.57;;
23549;SDS011;11953;49.010;8.608;2022-07-23T03:02:26;6.72;;;4.50;;
23549;SDS011;11953;49.010;8.608;2022-07-23T03:05:14;7.22;;;4.53;;
23549;SDS011;11953;49.010;8.608;2022-07-23T03:08:01;7.28;;;4.30;;
23549;SDS011;11953;49.010;8.608;2022-07-23T03:10:51;7.13;;;4.40;;
23549;SDS011;11953;49.010;8.608;2022-07-23T03:13:38;6.10;;;4.38;;
23549;SDS011;11953;49.010;8.608;2022-07-23T03:16:26;6.60;;;4.80;;
23549;SDS011;11953;49.010;8.608;2022-07-23T03:19:13;5.53;;;4.20;;
23549;SDS011;11953;49.010;8.608;2022-07-23T03:22:01;6.97;;;4.63;;
23549;SDS011;11953;49.010;8.608;2022-07-23T03:24:48;5.70;;;4.40;;
23549;SDS011;11953;49.010;8.608;2022-07-23T03:27:43;6.13;;;4.63;;
23549;SDS011;11953;49.010;8.608;2022-07-23T03:30:30;6.78;;;4.20;;
23549;SDS011;11953;49.010;8.608;2022-07-23T03:33:18;8.43;;;3.95;;
23549;SDS011;11953;49.010;8.608;2022-07-23T03:36:06;6.70;;;4.30;;
23549;SDS011;11953;49.010;8.608;2022-07-23T03:39:04;7.15;;;4.57;;
23549;SDS011;11953;49.010;8.608;2022-07-23T03:41:56;7.07;;;4.25;;
23549;SDS011;11953;49.010;8.608;2022-07-23T03:44:43;6.05;;;3.97;;
23549;SDS011;11953;49.010;8.608;2022-07-23T03:47:30;6.55;;;4.40;;
23549;SDS011;11953;49.010;8.608;2022-07-23T03:50:16;5.22;;;4.15;;
23549;SDS011;11953;49.010;8.608;2022-07-23T03:53:03;5.97;;;4.03;;
23549;SDS011;11953;49.010;8.608;2022-07-23T03:55:53;7.55;;;4.03;;
23549;SDS011;11953;49.010;8.608;2022-07-23T03:58:40;7.88;;;4.60;;
23549;SDS011;11953;49.010;8.608;2022-07-23T04:01:27;5.55;;;3.92;;
23549;SDS011;11953;49.010;8.608;2022-07-23T04:04:16;5.43;;;4.07;;
23549;SDS011;11953;49.010;8.608;2022-07-23T04:07:03;8.77;;;3.92;;
23549;SDS011;11953;49.010;8.608;2022-07-23T04:09:50;7.15;;;4.20;;
23549;SDS011;11953;49.010;8.608;2022-07-23T04:12:39;7.10;;;4.05;;
23549;SDS011;11953;49.010;8.608;2022-07-23T04:15:25;6.75;;;5.07;;
23549;SDS011;11953;49.010;8.608;2022-07-23T04:18:12;8.40;;;4.88;;
23549;SDS011;11953;49.010;8.608;2022-07-23T04:21:10;7.93;;;4.05;;
23549;SDS011;11953;49.010;8.608;2022-07-23T04:23:56;5.95;;;4.53;;
23549;SDS011;11953;49.010;8.608;2022-07-23T04:26:43;5.10;;;4.40;;
23549;SDS011;11953;49.010;8.608;2022-07-23T04:29:32;5.43;;;4.70;;
23549;SDS011;11953;49.010;8.608;2022-07-23T04:32:19;6.22;;;4.32;;
23549;SDS011;11953;49.010;8.608;2022-07-23T04:35:06;5.82;;;3.78;;
23549;SDS011;11953;49.010;8.608;2022-07-23T04:37:53;6.45;;;4.28;;
23549;SDS011;11953;49.010;8.608;2022-07-23T04:40:41;7.05;;;4.38;;
23549;SDS011;11953;49.010;8.608;2022-07-23T04:43:29;5.03;;;4.40;;
23549;SDS011;11953;49.010;8.608;2022-07-23T04:46:17;5.55;;;4.25;;
23549;SDS011;11953;49.010;8.608;2022-07-23T04:49:06;6.75;;;4.43;;
23549;SDS011;11953;49.010;8.608;2022-07-23T04:51:53;9.52;;;4.95;;
23549;SDS011;11953;49.010;8.608;2022-07-23T04:54:40;7.90;;;4.57;;
23549;SDS011;11953;49.010;8.608;2022-07-23T04:57:27;6.32;;;4.80;;
23549;SDS011;11953;49.010;8.608;2022-07-23T05:00:14;6.80;;;4.60;;
23549;SDS011;11953;49.010;8.608;2022-07-23T05:03:02;5.55;;;4.32;;
23549;SDS011;11953;49.010;8.608;2022-07-23T05:05:49;9.15;;;4.57;;
23549;SDS011;11953;49.010;8.608;2022-07-23T05:08:36;8.57;;;3.85;;
23549;SDS011;11953;49.010;8.608;2022-07-23T05:11:23;6.03;;;3.67;;
23549;SDS011;11953;49.010;8.608;2022-07-23T05:14:11;7.25;;;3.90;;
23549;SDS011;11953;49.010;8.608;2022-07-23T05:16:59;6.53;;;3.97;;
23549;SDS011;11953;49.010;8.608;2022-07-23T05:19:47;5.68;;;4.32;;
23549;SDS011;11953;49.010;8.608;2022-07-23T05:22:34;8.02;;;3.42;;
23549;SDS011;11953;49.010;8.608;2022-07-23T05:25:21;6.78;;;3.90;;
23549;SDS011;11953;49.010;8.608;2022-07-23T05:28:08;6.28;;;3.70;;
23549;SDS011;11953;49.010;8.608;2022-07-23T05:30:55;6.00;;;3.95;;
23549;SDS011;11953;49.010;8.608;2022-07-23T05:33:42;5.82;;;3.30;;
23549;SDS011;11953;49.010;8.608;2022-07-23T05:36:32;5.18;;;3.35;;
23549;SDS011;11953;49.010;8.608;2022-07-23T05:39:20;5.13;;;3.75;;
23549;SDS011;11953;49.010;8.608;2022-07-23T05:42:07;5.28;;;3.78;;
23549;SDS011;11953;49.010;8.608;2022-07-23T05:44:54;7.47;;;3.72;;
23549;SDS011;11953;49.010;8.608;2022-07-23T05:47:42;6.18;;;3.78;;
23549;SDS011;11953;49.010;8.608;2022-07-23T05:50:34;5.57;;;3.70;;
23549;SDS011;11953;49.010;8.608;2022-07-23T05:53:33;5.93;;;4.22;;
23549;SDS011;11953;49.010;8.608;2022-07-23T05:56:30;5.05;;;3.80;;
23549;SDS011;11953;49.010;8.608;2022-07-23T05:59:18;6.97;;;4.10;;
23549;SDS011;11953;49.010;8.608;2022-07-23T06:02:04;9.70;;;4.22;;
23549;SDS011;11953;49.010;8.608;2022-07-23T06:04:52;6.82;;;3.70;;
23549;SDS011;11953;49.010;8.608;2022-07-23T06:07:48;6.25;;;3.97;;
23549;SDS011;11953;49.010;8.608;2022-07-23T06:10:36;7.47;;;4.22;;
23549;SDS011;11953;49.010;8.608;2022-07-23T06:13:23;5.18;;;3.92;;
23549;SDS011;11953;49.010;8.608;2022-07-23T06:16:10;8.88;;;4.57;;
23549;SDS011;11953;49.010;8.608;2022-07-23T06:18:57;8.40;;;4.03;;
23549;SDS011;11953;49.010;8.608;2022-07-23T06:21:47;9.07;;;4.63;;
23549;SDS011;11953;49.010;8.608;2022-07-23T06:24:34;7.13;;;4.38;;
23549;SDS011;11953;49.010;8.608;2022-07-23T06:27:22;6.10;;;4.13;;
23549;SDS011;11953;49.010;8.608;2022-07-23T06:30:11;4.30;;;3.90;;
23549;SDS011;11953;49.010;8.608;2022-07-23T06:33:01;5.97;;;4.35;;
23549;SDS011;11953;49.010;8.608;2022-07-23T06:35:48;6.40;;;4.72;;
23549;SDS011;11953;49.010;8.608;2022-07-23T06:38:35;9.45;;;5.63;;
23549;SDS011;11953;49.010;8.608;2022-07-23T06:41:22;9.43;;;5.57;;
23549;SDS011;11953;49.010;8.608;2022-07-23T06:44:10;11.93;;;5.95;;
23549;SDS011;11953;49.010;8.608;2022-07-23T06:46:59;8.43;;;5.35;;
23549;SDS011;11953;49.010;8.608;2022-07-23T06:49:46;13.65;;;5.55;;
23549;SDS011;11953;49.010;8.608;2022-07-23T06:52:33;9.07;;;5.20;;
23549;SDS011;11953;49.010;8.608;2022-07-23T06:55:26;8.88;;;5.47;;
23549;SDS011;11953;49.010;8.608;2022-07-23T06:58:12;9.50;;;5.72;;
23549;SDS011;11953;49.010;8.608;2022-07-23T07:01:02;11.45;;;5.40;;
23549;SDS011;11953;49.010;8.608;2022-07-23T07:03:49;7.70;;;4.88;;
23549;SDS011;11953;49.010;8.608;2022-07-23T07:06:36;6.45;;;4.97;;
23549;SDS011;11953;49.010;8.608;2022-07-23T07:09:22;8.02;;;5.45;;
23549;SDS011;11953;49.010;8.608;2022-07-23T07:12:09;7.22;;;5.28;;
23549;SDS011;11953;49.010;8.608;2022-07-23T07:14:56;9.10;;;5.00;;
23549;SDS011;11953;49.010;8.608;2022-07-23T07:17:44;9.65;;;5.13;;
23549;SDS011;11953;49.010;8.608;2022-07-23T07:20:32;9.60;;;4.88;;
23549;SDS011;11953;49.010;8.608;2022-07-23T07:23:18;8.23;;;5.50;;
23549;SDS011;11953;49.010;8.608;2022-07-23T07:26:05;8.70;;;4.97;;
23549;SDS011;11953;49.010;8.608;2022-07-23T07:28:52;5.93;;;5.05;;
23549;SDS011;11953;49.010;8.608;2022-07-23T07:31:39;7.05;;;4.90;;
23549;SDS011;11953;49.010;8.608;2022-07-23T07:34:27;6.63;;;4.90;;
23549;SDS011;11953;49.010;8.608;2022-07-23T07:37:13;6.72;;;4.90;;
23549;SDS011;11953;49.010;8.608;2022-07-23T07:40:00;6.35;;;4.50;;
23549;SDS011;11953;49.010;8.608;2022-07-23T07:42:47;5.70;;;4.85;;
23549;SDS011;11953;49.010;8.608;2022-07-23T07:45:36;7.30;;;5.30;;
23549;SDS011;11953;49.010;8.608;2022-07-23T07:48:22;9.43;;;4.85;;
23549;SDS011;11953;49.010;8.608;2022-07-23T07:51:11;10.63;;;4.53;;
23549;SDS011;11953;49.010;8.608;2022-07-23T07:53:57;7.85;;;4.85;;
23549;SDS011;11953;49.010;8.608;2022-07-23T07:56:45;7.88;;;4.57;;
23549;SDS011;11953;49.010;8.608;2022-07-23T07:59:32;7.28;;;4.72;;
23549;SDS011;11953;49.010;8.608;2022-07-23T08:02:18;10.65;;;4.18;;
23549;SDS011;11953;49.010;8.608;2022-07-23T08:05:06;5.95;;;4.70;;
23549;SDS011;11953;49.010;8.608;2022-07-23T08:07:54;8.43;;;4.53;;
23549;SDS011;11953;49.010;8.608;2022-07-23T08:10:41;4.90;;;4.40;;
23549;SDS011;11953;49.010;8.608;2022-07-23T08:13:28;5.50;;;3.53;;
23549;SDS011;11953;49.010;8.608;2022-07-23T08:16:15;6.35;;;4.10;;
23549;SDS011;11953;49.010;8.608;2022-07-23T08:19:02;4.55;;;3.58;;
23549;SDS011;11953;49.010;8.608;2022-07-23T08:21:48;6.28;;;4.68;;
23549;SDS011;11953;49.010;8.608;2022-07-23T08:24:36;6.28;;;4.80;;
23549;SDS011;11953;49.010;8.608;2022-07-23T08:27:24;5.50;;;4.40;;
23549;SDS011;11953;49.010;8.608;2022-07-23T08:30:11;6.43;;;4.47;;
23549;SDS011;11953;49.010;8.608;2022-07-23T08:32:58;6.20;;;4.40;;
23549;SDS011;11953;49.010;8.608;2022-07-23T08:35:46;5.22;;;4.05;;
23549;SDS011;11953;49.010;8.608;2022-07-23T08:38:34;9.25;;;4.40;;
23549;SDS011;11953;49.010;8.608;2022-07-23T08:41:22;6.75;;;4.28;;
23549;SDS011;11953;49.010;8.608;2022-07-23T08:44:09;7.45;;;4.60;;
23549;SDS011;11953;49.010;8.608;2022-07-23T08:46:55;6.50;;;4.30;;
23549;SDS011;11953;49.010;8.608;2022-07-23T08:49:42;6.55;;;4.60;;
23549;SDS011;11953;49.010;8.608;2022-07-23T08:52:31;6.78;;;4.43;;
23549;SDS011;11953;49.010;8.608;2022-07-23T08:55:19;7.10;;;4.55;;
23549;SDS011;11953;49.010;8.608;2022-07-23T08:58:09;6.22;;;4.70;;
23549;SDS011;11953;49.010;8.608;2022-07-23T09:00:56;5.35;;;4.55;;
23549;SDS011;11953;49.010;8.608;2022-07-23T09:03:43;7.45;;;4.25;;
23549;SDS011;11953;49.010;8.608;2022-07-23T09:06:31;4.65;;;3.85;;
23549;SDS011;11953;49.010;8.608;2022-07-23T09:09:18;6.35;;;4.03;;
23549;SDS011;11953;49.010;8.608;2022-07-23T09:12:07;4.88;;;3.78;;
23549;SDS011;11953;49.010;8.608;2022-07-23T09:14:56;7.53;;;4.30;;
23549;SDS011;11953;49.010;8.608;2022-07-23T09:17:50;5.95;;;4.50;;
23549;SDS011;11953;49.010;8.608;2022-07-23T09:20:36;6.75;;;4.38;;
23549;SDS011;11953;49.010;8.608;2022-07-23T09:23:31;6.38;;;4.68;;
23549;SDS011;11953;49.010;8.608;2022-07-23T09:26:25;5.75;;;4.22;;
23549;SDS011;11953;49.010;8.608;2022-07-23T09:29:17;6.32;;;4.75;;
23549;SDS011;11953;49.010;8.608;2022-07-23T09:32:06;6.40;;;4.43;;
23549;SDS011;11953;49.010;8.608;2022-07-23T09:34:59;5.78;;;4.45;;
23549;SDS011;11953;49.010;8.608;2022-07-23T09:38:00;6.45;;;4.18;;
23549;SDS011;11953;49.010;8.608;2022-07-23T09:40:47;5.78;;;3.88;;
23549;SDS011;11953;49.010;8.608;2022-07-23T09:43:55;5.32;;;4.43;;
23549;SDS011;11953;49.010;8.608;2022-07-23T09:46:44;7.93;;;4.55;;
23549;SDS011;11953;49.010;8.608;2022-07-23T09:49:33;5.28;;;4.18;;
23549;SDS011;11953;49.010;8.608;2022-07-23T09:52:25;6.47;;;4.45;;
23549;SDS011;11953;49.010;8.608;2022-07-23T09:55:18;5.57;;;4.25;;
23549;SDS011;11953;49.010;8.608;2022-07-23T09:58:06;5.28;;;4.10;;
23549;SDS011;11953;49.010;8.608;2022-07-23T10:00:56;6.35;;;4.70;;
23549;SDS011;11953;49.010;8.608;2022-07-23T10:03:44;5.75;;;4.55;;
23549;SDS011;11953;49.010;8.608;2022-07-23T10:07:06;8.55;;;4.72;;
23549;SDS011;11953;49.010;8.608;2022-07-23T10:10:13;4.95;;;4.35;;
23549;SDS011;11953;49.010;8.608;2022-07-23T10:13:19;9.45;;;5.38;;
23549;SDS011;11953;49.010;8.608;2022-07-23T10:16:29;8.57;;;5.05;;
23549;SDS011;11953;49.010;8.608;2022-07-23T10:19:16;9.32;;;4.90;;
23549;SDS011;11953;49.010;8.608;2022-07-23T10:22:06;7.45;;;4.85;;
23549;SDS011;11953;49.010;8.608;2022-07-23T10:24:58;6.57;;;4.97;;
23549;SDS011;11953;49.010;8.608;2022-07-23T10:28:06;6.45;;;4.78;;
23549;SDS011;11953;49.010;8.608;2022-07-23T10:31:00;5.97;;;4.95;;
23549;SDS011;11953;49.010;8.608;2022-07-23T10:37:07;6.20;;;5.07;;
23549;SDS011;11953;49.010;8.608;2022-07-23T10:40:09;6.05;;;4.85;;
23549;SDS011;11953;49.010;8.608;2022-07-23T10:42:58;6.25;;;4.65;;
23549;SDS011;11953;49.010;8.608;2022-07-23T10:45:47;8.45;;;4.85;;
23549;SDS011;11953;49.010;8.608;2022-07-23T10:48:35;6.60;;;4.80;;
23549;SDS011;11953;49.010;8.608;2022-07-23T10:51:22;5.65;;;4.90;;
23549;SDS011;11953;49.010;8.608;2022-07-23T10:54:13;7.43;;;4.88;;
23549;SDS011;11953;49.010;8.608;2022-07-23T10:57:08;7.22;;;5.05;;
23549;SDS011;11953;49.010;8.608;2022-07-23T11:06:18;5.90;;;4.57;;
23549;SDS011;11953;49.010;8.608;2022-07-23T11:09:25;6.15;;;4.63;;
23549;SDS011;11953;49.010;8.608;2022-07-23T11:15:26;7.68;;;4.90;;
23549;SDS011;11953;49.010;8.608;2022-07-23T11:18:12;8.75;;;4.63;;
23549;SDS011;11953;49.010;8.608;2022-07-23T11:21:01;6.75;;;4.93;;
23549;SDS011;11953;49.010;8.608;2022-07-23T11:24:28;6.72;;;5.00;;
23549;SDS011;11953;49.010;8.608;2022-07-23T11:27:14;6.50;;;4.80;;
23549;SDS011;11953;49.010;8.608;2022-07-23T11:33:24;6.28;;;5.00;;
23549;SDS011;11953;49.010;8.608;2022-07-23T11:36:11;6.28;;;4.85;;
23549;SDS011;11953;49.010;8.608;2022-07-23T11:38:57;6.25;;;4.88;;
23549;SDS011;11953;49.010;8.608;2022-07-23T11:41:48;6.90;;;4.97;;
23549;SDS011;11953;49.010;8.608;2022-07-23T11:44:35;8.05;;;5.50;;
23549;SDS011;11953;49.010;8.608;2022-07-23T11:47:24;6.70;;;4.90;;
23549;SDS011;11953;49.010;8.608;2022-07-23T11:50:12;6.03;;;5.38;;
23549;SDS011;11953;49.010;8.608;2022-07-23T11:52:59;6.20;;;4.80;;
23549;SDS011;11953;49.010;8.608;2022-07-23T11:55:46;6.40;;;5.45;;
23549;SDS011;11953;49.010;8.608;2022-07-23T11:58:34;6.25;;;5.32;;
23549;SDS011;11953;49.010;8.608;2022-07-23T12:01:21;6.63;;;5.07;;
23549;SDS011;11953;49.010;8.608;2022-07-23T12:04:10;6.78;;;5.55;;
23549;SDS011;11953;49.010;8.608;2022-07-23T12:06:57;6.57;;;5.35;;
23549;SDS011;11953;49.010;8.608;2022-07-23T12:09:44;7.18;;;5.75;;
23549;SDS011;11953;49.010;8.608;2022-07-23T12:12:34;9.27;;;6.32;;
23549;SDS011;11953;49.010;8.608;2022-07-23T12:15:24;7.35;;;5.57;;
23549;SDS011;11953;49.010;8.608;2022-07-23T12:18:16;7.00;;;5.60;;
23549;SDS011;11953;49.010;8.608;2022-07-23T12:21:04;6.75;;;5.32;;
23549;SDS011;11953;49.010;8.608;2022-07-23T12:23:52;8.05;;;5.60;;
23549;SDS011;11953;49.010;8.608;2022-07-23T12:27:07;7.25;;;5.18;;
23549;SDS011;11953;49.010;8.608;2022-07-23T12:29:55;7.07;;;5.57;;
23549;SDS011;11953;49.010;8.608;2022-07-23T12:32:44;7.28;;;5.38;;
23549;SDS011;11953;49.010;8.608;2022-07-23T12:35:32;7.03;;;5.15;;
23549;SDS011;11953;49.010;8.608;2022-07-23T12:38:22;5.60;;;4.97;;
23549;SDS011;11953;49.010;8.608;2022-07-23T12:41:10;6.05;;;5.05;;
23549;SDS011;11953;49.010;8.608;2022-07-23T12:43:57;5.75;;;5.10;;
23549;SDS011;11953;49.010;8.608;2022-07-23T12:46:46;6.93;;;5.80;;
23549;SDS011;11953;49.010;8.608;2022-07-23T12:49:37;6.72;;;5.65;;
23549;SDS011;11953;49.010;8.608;2022-07-23T12:52:24;7.55;;;5.10;;
23549;SDS011;11953;49.010;8.608;2022-07-23T12:58:14;6.53;;;4.72;;
23549;SDS011;11953;49.010;8.608;2022-07-23T13:01:04;5.55;;;5.03;;
23549;SDS011;11953;49.010;8.608;2022-07-23T13:03:56;5.65;;;4.78;;
23549;SDS011;11953;49.010;8.608;2022-07-23T13:09:48;5.82;;;4.63;;
23549;SDS011;11953;49.010;8.608;2022-07-23T13:12:35;5.68;;;5.07;;
23549;SDS011;11953;49.010;8.608;2022-07-23T13:15:21;6.22;;;5.07;;
23549;SDS011;11953;49.010;8.608;2022-07-23T13:18:08;8.57;;;5.03;;
23549;SDS011;11953;49.010;8.608;2022-07-23T13:20:56;6.03;;;4.78;;
23549;SDS011;11953;49.010;8.608;2022-07-23T13:23:44;8.13;;;5.20;;
23549;SDS011;11953;49.010;8.608;2022-07-23T13:26:31;6.15;;;4.90;;
23549;SDS011;11953;49.010;8.608;2022-07-23T13:29:18;6.57;;;4.72;;
23549;SDS011;11953;49.010;8.608;2022-07-23T13:32:04;6.85;;;5.05;;
23549;SDS011;11953;49.010;8.608;2022-07-23T13:34:57;8.50;;;4.88;;
23549;SDS011;11953;49.010;8.608;2022-07-23T13:37:45;6.78;;;5.13;;
23549;SDS011;11953;49.010;8.608;2022-07-23T13:40:34;7.07;;;5.85;;
23549;SDS011;11953;49.010;8.608;2022-07-23T13:43:23;5.78;;;4.50;;
23549;SDS011;11953;49.010;8.608;2022-07-23T13:46:17;5.32;;;4.38;;
23549;SDS011;11953;49.010;8.608;2022-07-23T13:49:05;5.32;;;4.63;;
23549;SDS011;11953;49.010;8.608;2022-07-23T13:51:53;8.70;;;4.60;;
23549;SDS011;11953;49.010;8.608;2022-07-23T13:54:40;5.57;;;4.60;;
23549;SDS011;11953;49.010;8.608;2022-07-23T13:57:28;4.97;;;4.47;;
23549;SDS011;11953;49.010;8.608;2022-07-23T14:00:16;8.50;;;5.20;;
23549;SDS011;11953;49.010;8.608;2022-07-23T14:03:23;5.55;;;4.70;;
23549;SDS011;11953;49.010;8.608;2022-07-23T14:06:11;6.15;;;4.45;;
23549;SDS011;11953;49.010;8.608;2022-07-23T14:09:01;7.10;;;5.20;;
23549;SDS011;11953;49.010;8.608;2022-07-23T14:11:48;7.28;;;4.85;;
23549;SDS011;11953;49.010;8.608;2022-07-23T14:14:38;5.53;;;5.00;;
23549;SDS011;11953;49.010;8.608;2022-07-23T14:17:24;6.60;;;5.00;;
23549;SDS011;11953;49.010;8.608;2022-07-23T14:20:12;6.40;;;5.15;;
23549;SDS011;11953;49.010;8.608;2022-07-23T14:22:59;6.60;;;5.30;;
23549;SDS011;11953;49.010;8.608;2022-07-23T14:25:50;5.53;;;4.50;;
23549;SDS011;11953;49.010;8.608;2022-07-23T14:28:36;6.18;;;5.20;;
23549;SDS011;11953;49.010;8.608;2022-07-23T14:31:25;5.50;;;4.80;;
23549;SDS011;11953;49.010;8.608;2022-07-23T14:34:12;5.72;;;4.75;;
23549;SDS011;11953;49.010;8.608;2022-07-23T14:36:59;6.80;;;5.03;;
23549;SDS011;11953;49.010;8.608;2022-07-23T14:39:46;6.95;;;4.50;;
23549;SDS011;11953;49.010;8.608;2022-07-23T14:42:34;7.50;;;5.28;;
23549;SDS011;11953;49.010;8.608;2022-07-23T14:45:21;6.00;;;4.95;;
23549;SDS011;11953;49.010;8.608;2022-07-23T14:48:09;6.57;;;5.00;;
23549;SDS011;11953;49.010;8.608;2022-07-23T14:50:55;6.30;;;4.53;;
23549;SDS011;11953;49.010;8.608;2022-07-23T14:53:43;5.75;;;4.68;;
23549;SDS011;11953;49.010;8.608;2022-07-23T14:56:30;6.38;;;5.25;;
23549;SDS011;11953;49.010;8.608;2022-07-23T14:59:18;6.07;;;4.93;;
23549;SDS011;11953;49.010;8.608;2022-07-23T15:02:05;8.65;;;5.47;;
23549;SDS011;11953;49.010;8.608;2022-07-23T15:04:54;14.90;;;5.38;;
23549;SDS011;11953;49.010;8.608;2022-07-23T15:07:42;9.65;;;5.22;;
23549;SDS011;11953;49.010;8.608;2022-07-23T15:10:29;8.63;;;5.10;;
23549;SDS011;11953;49.010;8.608;2022-07-23T15:13:15;6.82;;;4.95;;
23549;SDS011;11953;49.010;8.608;2022-07-23T15:16:03;7.32;;;4.93;;
23549;SDS011;11953;49.010;8.608;2022-07-23T15:18:53;8.45;;;5.20;;
23549;SDS011;11953;49.010;8.608;2022-07-23T15:21:42;8.43;;;5.47;;
23549;SDS011;11953;49.010;8.608;2022-07-23T15:24:33;6.72;;;5.60;;
23549;SDS011;11953;49.010;8.608;2022-07-23T15:27:20;6.88;;;5.18;;
23549;SDS011;11953;49.010;8.608;2022-07-23T15:30:09;9.07;;;5.32;;
23549;SDS011;11953;49.010;8.608;2022-07-23T15:32:56;6.70;;;5.18;;
23549;SDS011;11953;49.010;8.608;2022-07-23T15:35:43;5.70;;;5.10;;
23549;SDS011;11953;49.010;8.608;2022-07-23T15:38:32;6.25;;;5.07;;
23549;SDS011;11953;49.010;8.608;2022-07-23T15:41:19;8.25;;;5.38;;
23549;SDS011;11953;49.010;8.608;2022-07-23T15:44:07;5.60;;;5.00;;
23549;SDS011;11953;49.010;8.608;2022-07-23T15:47:14;7.20;;;4.90;;
23549;SDS011;11953;49.010;8.608;2022-07-23T15:50:03;7.60;;;5.30;;
23549;SDS011;11953;49.010;8.608;2022-07-23T15:52:51;6.68;;;5.13;;
23549;SDS011;11953;49.010;8.608;2022-07-23T15:55:39;6.93;;;5.72;;
23549;SDS011;11953;49.010;8.608;2022-07-23T15:58:29;7.45;;;5.20;;
23549;SDS011;11953;49.010;8.608;2022-07-23T16:01:16;6.82;;;5.13;;
23549;SDS011;11953;49.010;8.608;2022-07-23T16:04:03;8.52;;;5.47;;
23549;SDS011;11953;49.010;8.608;2022-07-23T16:06:50;7.60;;;5.88;;
23549;SDS011;11953;49.010;8.608;2022-07-23T16:09:37;7.05;;;5.55;;
23549;SDS011;11953;49.010;8.608;2022-07-23T16:12:26;8.40;;;6.07;;
23549;SDS011;11953;49.010;8.608;2022-07-23T16:15:12;7.90;;;5.97;;
23549;SDS011;11953;49.010;8.608;2022-07-23T16:17:59;7.65;;;6.07;;
23549;SDS011;11953;49.010;8.608;2022-07-23T16:20:46;6.78;;;5.60;;
23549;SDS011;11953;49.010;8.608;2022-07-23T16:23:33;8.02;;;5.93;;
23549;SDS011;11953;49.010;8.608;2022-07-23T16:26:19;11.25;;;6.28;;
23549;SDS011;11953;49.010;8.608;2022-07-23T16:29:07;10.93;;;8.82;;
23549;SDS011;11953;49.010;8.608;2022-07-23T16:32:04;7.97;;;6.60;;
23549;SDS011;11953;49.010;8.608;2022-07-23T16:34:51;13.88;;;9.77;;
23549;SDS011;11953;49.010;8.608;2022-07-23T16:37:38;7.20;;;6.07;;
23549;SDS011;11953;49.010;8.608;2022-07-23T16:40:25;9.45;;;5.93;;
23549;SDS011;11953;49.010;8.608;2022-07-23T16:43:12;7.43;;;5.32;;
23549;SDS011;11953;49.010;8.608;2022-07-23T16:46:00;6.20;;;5.60;;
23549;SDS011;11953;49.010;8.608;2022-07-23T16:48:47;9.02;;;5.75;;
23549;SDS011;11953;49.010;8.608;2022-07-23T16:51:34;8.30;;;6.07;;
23549;SDS011;11953;49.010;8.608;2022-07-23T16:54:21;7.80;;;5.70;;
23549;SDS011;11953;49.010;8.608;2022-07-23T16:57:08;6.40;;;5.65;;
23549;SDS011;11953;49.010;8.608;2022-07-23T16:59:54;7.38;;;5.75;;
23549;SDS011;11953;49.010;8.608;2022-07-23T17:02:42;8.02;;;5.95;;
23549;SDS011;11953;49.010;8.608;2022-07-23T17:05:29;6.82;;;5.68;;
23549;SDS011;11953;49.010;8.608;2022-07-23T17:08:16;9.60;;;6.18;;
23549;SDS011;11953;49.010;8.608;2022-07-23T17:11:03;9.10;;;5.80;;
23549;SDS011;11953;49.010;8.608;2022-07-23T17:13:50;7.30;;;6.03;;
23549;SDS011;11953;49.010;8.608;2022-07-23T17:16:37;7.32;;;5.78;;
23549;SDS011;11953;49.010;8.608;2022-07-23T17:19:25;6.47;;;5.65;;
23549;SDS011;11953;49.010;8.608;2022-07-23T17:22:12;6.50;;;5.18;;
23549;SDS011;11953;49.010;8.608;2022-07-23T17:24:59;7.00;;;5.65;;